createdAt,value
2023-02-04T00:00:49.601Z,-0.50
2023-02-04T00:04:29.865Z,-0.56
2023-02-04T00:07:56.995Z,-0.62
2023-02-04T00:11:24.282Z,-0.65
2023-02-04T00:14:51.543Z,-0.66
2023-02-04T00:18:18.995Z,-0.66
2023-02-04T00:21:46.799Z,-0.65
2023-02-04T00:25:14.160Z,-0.65
2023-02-04T00:28:41.500Z,-0.66
2023-02-04T00:32:09.154Z,-0.67
2023-02-04T00:35:37.454Z,-0.69
2023-02-04T00:39:05.081Z,-0.69
2023-02-04T00:42:33.571Z,-0.71
2023-02-04T00:46:00.736Z,-0.72
2023-02-04T00:49:28.396Z,-0.73
2023-02-04T00:52:57.175Z,-0.73
2023-02-04T00:56:24.300Z,-0.73
2023-02-04T00:59:51.509Z,-0.71
2023-02-04T01:03:18.656Z,-0.70
2023-02-04T01:06:45.959Z,-0.68
2023-02-04T01:10:13.599Z,-0.68
2023-02-04T01:13:41.254Z,-0.68
2023-02-04T01:17:09.068Z,-0.70
2023-02-04T01:20:36.272Z,-0.74
2023-02-04T01:24:03.527Z,-0.80
2023-02-04T01:27:30.850Z,-0.86
2023-02-04T01:30:58.168Z,-0.93
2023-02-04T01:34:26.080Z,-1.00
2023-02-04T01:37:53.282Z,-1.06
2023-02-04T01:41:21.243Z,-1.09
2023-02-04T01:44:49.320Z,-1.14
2023-02-04T01:48:20.626Z,-1.19
2023-02-04T01:51:48.097Z,-1.23
2023-02-04T01:55:18.543Z,-1.25
2023-02-04T01:58:46.346Z,-1.23
2023-02-04T02:02:43.271Z,-1.26
2023-02-04T02:06:11.975Z,-1.25
2023-02-04T02:09:39.213Z,-1.27
2023-02-04T02:13:08.532Z,-1.30
2023-02-04T02:16:38.783Z,-1.30
2023-02-04T02:20:07.195Z,-1.31
2023-02-04T02:23:50.736Z,-1.31
2023-02-04T02:27:18.603Z,-1.33
2023-02-04T02:30:47.309Z,-1.31
2023-02-04T02:34:15.160Z,-1.30
2023-02-04T02:37:42.771Z,-1.30
2023-02-04T02:41:10.511Z,-1.27
2023-02-04T02:44:37.670Z,-1.25
2023-02-04T02:48:05.193Z,-1.26
2023-02-04T02:51:32.813Z,-1.28
2023-02-04T02:55:00.211Z,-1.30
2023-02-04T02:58:32.378Z,-1.31
2023-02-04T03:02:03.601Z,-1.34
2023-02-04T03:05:35.138Z,-1.38
2023-02-04T03:09:02.747Z,-1.38
2023-02-04T03:12:30.100Z,-1.38
2023-02-04T03:15:58.495Z,-1.39
2023-02-04T03:19:27.054Z,-1.40
2023-02-04T03:22:54.986Z,-1.38
2023-02-04T03:26:23.215Z,-1.40
2023-02-04T03:29:50.434Z,-1.43
2023-02-04T03:33:17.791Z,-1.45
2023-02-04T03:36:45.102Z,-1.47
2023-02-04T03:40:14.606Z,-1.47
2023-02-04T03:43:41.699Z,-1.49
2023-02-04T03:47:08.989Z,-1.53
2023-02-04T03:50:36.258Z,-1.55
2023-02-04T03:54:04.042Z,-1.57
2023-02-04T03:57:31.231Z,-1.61
2023-02-04T04:00:58.497Z,-1.62
2023-02-04T04:04:25.828Z,-1.64
2023-02-04T04:07:53.385Z,-1.63
2023-02-04T04:11:22.123Z,-1.64
2023-02-04T04:14:49.374Z,-1.66
2023-02-04T04:18:16.587Z,-1.67
2023-02-04T04:21:43.898Z,-1.69
2023-02-04T04:25:11.578Z,-1.69
2023-02-04T04:28:38.797Z,-1.73
2023-02-04T04:32:06.468Z,-1.76
2023-02-04T04:35:34.826Z,-1.78
2023-02-04T04:39:01.969Z,-1.79
2023-02-04T04:42:29.560Z,-1.80
2023-02-04T04:45:56.704Z,-1.79
2023-02-04T04:49:23.922Z,-1.78
2023-02-04T04:52:51.070Z,-1.78
2023-02-04T04:56:19.241Z,-1.79
2023-02-04T04:59:46.353Z,-1.81
2023-02-04T05:03:13.974Z,-1.82
2023-02-04T05:06:41.146Z,-1.81
2023-02-04T05:10:09.623Z,-1.81
2023-02-04T05:13:36.868Z,-1.81
2023-02-04T05:17:04.043Z,-1.80
2023-02-04T05:20:31.721Z,-1.79
2023-02-04T05:23:59.383Z,-1.80
2023-02-04T05:27:26.585Z,-1.80
2023-02-04T05:30:53.901Z,-1.78
2023-02-04T05:34:21.160Z,-1.79
2023-02-04T05:37:48.219Z,-1.81
2023-02-04T05:41:15.528Z,-1.85
2023-02-04T05:44:42.664Z,-1.88
2023-02-04T05:48:09.990Z,-1.91
2023-02-04T05:51:37.340Z,-1.91
2023-02-04T05:55:04.802Z,-1.92
2023-02-04T05:58:33.756Z,-1.94
2023-02-04T06:02:01.038Z,-1.94
2023-02-04T06:05:28.283Z,-1.94
2023-02-04T06:08:55.391Z,-1.92
2023-02-04T06:12:22.513Z,-1.91
2023-02-04T06:15:49.718Z,-1.89
2023-02-04T06:19:17.064Z,-1.87
2023-02-04T06:22:44.169Z,-1.83
2023-02-04T06:26:11.566Z,-1.78
2023-02-04T06:29:38.787Z,-1.72
2023-02-04T06:33:06.178Z,-1.64
2023-02-04T06:36:33.311Z,-1.55
2023-02-04T06:40:00.441Z,-1.45
2023-02-04T06:43:28.074Z,-1.38
2023-02-04T06:46:55.397Z,-1.32
2023-02-04T06:50:22.580Z,-1.21
2023-02-04T06:53:50.234Z,-1.12
2023-02-04T06:57:17.351Z,-1.07
2023-02-04T07:00:44.546Z,-1.05
2023-02-04T07:04:11.838Z,-1.04
2023-02-04T07:07:39.128Z,-1.05
2023-02-04T07:11:06.435Z,-1.03
2023-02-04T07:14:33.543Z,-1.00
2023-02-04T07:18:00.847Z,-0.93
2023-02-04T07:21:28.105Z,-0.90
2023-02-04T07:24:55.234Z,-0.88
2023-02-04T07:28:23.115Z,-0.86
2023-02-04T07:31:52.874Z,-0.84
2023-02-04T07:35:20.356Z,-0.82
2023-02-04T07:38:47.465Z,-0.79
2023-02-04T07:42:14.637Z,-0.76
2023-02-04T07:45:45.291Z,-0.73
2023-02-04T07:49:12.499Z,-0.71
2023-02-04T07:52:39.904Z,-0.69
2023-02-04T07:56:08.447Z,-0.66
2023-02-04T07:59:35.559Z,-0.64
2023-02-04T08:03:02.788Z,-0.63
2023-02-04T08:06:30.410Z,-0.57
2023-02-04T08:09:57.556Z,-0.48
2023-02-04T08:13:25.533Z,-0.43
2023-02-04T08:16:52.586Z,-0.37
2023-02-04T08:20:20.489Z,-0.33
2023-02-04T08:23:47.567Z,-0.33
2023-02-04T08:27:15.110Z,-0.34
2023-02-04T08:30:42.334Z,-0.36
2023-02-04T08:34:09.713Z,-0.33
2023-02-04T08:37:36.988Z,-0.34
2023-02-04T08:41:04.403Z,-0.34
2023-02-04T08:44:31.656Z,-0.30
2023-02-04T08:47:59.073Z,-0.22
2023-02-04T08:51:26.319Z,-0.12
2023-02-04T08:54:53.582Z,-0.01
2023-02-04T08:58:20.853Z,0.06
2023-02-04T09:01:51.047Z,0.11
2023-02-04T09:05:18.730Z,0.15
2023-02-04T09:08:45.931Z,0.18
2023-02-04T09:12:13.047Z,0.25
2023-02-04T09:15:40.293Z,0.32
2023-02-04T09:19:11.137Z,0.37
2023-02-04T09:22:38.312Z,0.42
2023-02-04T09:26:08.950Z,0.47
2023-02-04T09:29:39.082Z,0.55
2023-02-04T09:33:06.712Z,0.62
2023-02-04T09:36:37.974Z,0.69
2023-02-04T09:40:06.268Z,0.73
2023-02-04T09:43:41.619Z,0.80
2023-02-04T09:47:12.788Z,0.85
2023-02-04T09:50:40.230Z,0.78
2023-02-04T09:54:13.511Z,0.78
2023-02-04T09:57:41.500Z,0.82
2023-02-04T10:01:16.785Z,0.85
2023-02-04T10:04:57.591Z,0.89
2023-02-04T10:08:30.323Z,0.97
2023-02-04T10:11:57.652Z,1.06
2023-02-04T10:15:24.986Z,1.07
2023-02-04T10:18:52.353Z,1.11
2023-02-04T10:22:22.332Z,1.13
2023-02-04T10:25:49.515Z,1.21
2023-02-04T10:29:19.460Z,1.31
2023-02-04T10:32:46.806Z,1.27
2023-02-04T10:36:13.924Z,1.28
2023-02-04T10:39:45.244Z,1.32
2023-02-04T10:43:15.866Z,1.33
2023-02-04T10:46:43.137Z,1.50
2023-02-04T10:50:22.501Z,1.49
2023-02-04T10:54:07.557Z,1.56
2023-02-04T10:57:43.504Z,1.59
2023-02-04T11:01:14.954Z,1.54
2023-02-04T11:04:42.166Z,1.47
2023-02-04T11:08:25.539Z,1.36
2023-02-04T11:11:53.641Z,1.27
2023-02-04T11:15:46.612Z,1.39
2023-02-04T11:19:16.483Z,1.51
2023-02-04T11:22:49.509Z,1.62
2023-02-04T11:26:20.333Z,1.82
2023-02-04T11:29:48.047Z,2.02
2023-02-04T11:33:35.086Z,2.00
2023-02-04T11:37:19.396Z,2.01
2023-02-04T11:40:58.762Z,1.94
2023-02-04T11:44:25.943Z,1.84
2023-02-04T11:47:54.199Z,1.79
2023-02-04T11:51:27.390Z,1.72
2023-02-04T11:54:59.619Z,1.72
2023-02-04T11:58:31.041Z,1.76
2023-02-04T12:02:15.140Z,1.81
2023-02-04T12:05:47.841Z,1.76
2023-02-04T12:09:27.309Z,1.67
2023-02-04T12:12:58.137Z,1.57
2023-02-04T12:16:26.290Z,1.66
2023-02-04T12:19:53.659Z,1.78
2023-02-04T12:23:21.086Z,1.79
2023-02-04T12:26:48.227Z,1.79
2023-02-04T12:30:18.534Z,1.77
2023-02-04T12:33:45.589Z,1.68
2023-02-04T12:37:12.708Z,1.66
2023-02-04T12:40:40.242Z,1.67
2023-02-04T12:44:07.903Z,1.57
2023-02-04T12:47:35.075Z,1.44
2023-02-04T12:51:02.442Z,1.32
2023-02-04T12:54:29.752Z,1.25
2023-02-04T12:57:57.362Z,1.16
2023-02-04T13:01:24.533Z,1.13
2023-02-04T13:04:51.668Z,1.12
2023-02-04T13:08:18.980Z,1.10
2023-02-04T13:11:46.507Z,1.01
2023-02-04T13:15:14.422Z,0.90
2023-02-04T13:18:41.576Z,0.82
2023-02-04T13:22:09.506Z,0.75
2023-02-04T13:25:36.843Z,0.72
2023-02-04T13:29:04.111Z,0.71
2023-02-04T13:32:31.418Z,0.78
2023-02-04T13:36:01.064Z,0.85
2023-02-04T13:39:28.218Z,1.00
2023-02-04T13:42:55.494Z,1.21
2023-02-04T13:46:24.127Z,1.41
2023-02-04T13:49:51.678Z,1.62
2023-02-04T13:53:18.992Z,1.82
2023-02-04T13:56:46.217Z,1.87
2023-02-04T14:00:15.652Z,1.91
2023-02-04T14:03:43.905Z,2.00
2023-02-04T14:07:10.985Z,2.04
2023-02-04T14:10:38.856Z,1.98
2023-02-04T14:14:06.723Z,1.98
2023-02-04T14:17:37.005Z,1.95
2023-02-04T14:21:04.323Z,1.91
2023-02-04T14:24:32.362Z,1.84
2023-02-04T14:28:00.403Z,1.72
2023-02-04T14:31:27.732Z,1.56
2023-02-04T14:34:55.027Z,1.46
2023-02-04T14:38:22.269Z,1.35
2023-02-04T14:41:49.585Z,1.24
2023-02-04T14:45:18.068Z,1.14
2023-02-04T14:48:46.255Z,1.03
2023-02-04T14:52:14.157Z,0.94
2023-02-04T14:55:41.459Z,0.87
2023-02-04T14:59:09.223Z,0.81
2023-02-04T15:02:36.937Z,0.76
2023-02-04T15:06:04.499Z,0.68
2023-02-04T15:09:32.469Z,0.60
2023-02-04T15:12:59.632Z,0.54
2023-02-04T15:16:27.117Z,0.49
2023-02-04T15:19:54.662Z,0.43
2023-02-04T15:23:21.870Z,0.38
2023-02-04T15:26:50.491Z,0.33
2023-02-04T15:30:22.491Z,0.27
2023-02-04T15:33:49.814Z,0.18
2023-02-04T15:37:17.063Z,0.09
2023-02-04T15:40:44.258Z,0.02
2023-02-04T15:44:12.781Z,-0.03
2023-02-04T15:47:40.115Z,-0.08
2023-02-04T15:51:07.935Z,-0.13
2023-02-04T15:54:35.344Z,-0.18
2023-02-04T15:58:02.532Z,-0.24
2023-02-04T16:01:33.520Z,-0.30
2023-02-04T16:05:00.854Z,-0.36
2023-02-04T16:08:28.398Z,-0.40
2023-02-04T16:11:55.422Z,-0.44
2023-02-04T16:15:22.649Z,-0.47
2023-02-04T16:18:52.955Z,-0.49
2023-02-04T16:22:40.281Z,-0.50
2023-02-04T16:26:08.903Z,-0.52
2023-02-04T16:29:38.611Z,-0.52
2023-02-04T16:33:08.953Z,-0.52
2023-02-04T16:36:36.341Z,-0.54
2023-02-04T16:40:04.027Z,-0.53
2023-02-04T16:43:31.498Z,-0.53
2023-02-04T16:46:58.807Z,-0.53
2023-02-04T16:50:25.965Z,-0.55
2023-02-04T16:53:53.279Z,-0.58
2023-02-04T16:57:20.423Z,-0.61
2023-02-04T17:00:48.351Z,-0.63
2023-02-04T17:04:15.448Z,-0.64
2023-02-04T17:07:42.521Z,-0.66
2023-02-04T17:11:29.985Z,-0.70
2023-02-04T17:14:57.363Z,-0.76
2023-02-04T17:18:27.263Z,-0.83
2023-02-04T17:21:57.589Z,-0.90
2023-02-04T17:25:27.170Z,-0.96
2023-02-04T17:28:57.302Z,-1.01
2023-02-04T17:32:24.574Z,-1.06
2023-02-04T17:35:51.831Z,-1.09
2023-02-04T17:39:18.966Z,-1.11
2023-02-04T17:42:46.096Z,-1.13
2023-02-04T17:46:13.270Z,-1.16
2023-02-04T17:49:40.439Z,-1.20
2023-02-04T17:53:08.319Z,-1.26
2023-02-04T17:56:38.213Z,-1.32
2023-02-04T18:00:07.826Z,-1.39
2023-02-04T18:03:38.011Z,-1.47
2023-02-04T18:07:07.130Z,-1.53
2023-02-04T18:10:37.006Z,-1.60
2023-02-04T18:14:13.507Z,-1.65
2023-02-04T18:17:40.891Z,-1.71
2023-02-04T18:21:20.457Z,-1.76
2023-02-04T18:24:49.008Z,-1.80
2023-02-04T18:28:19.129Z,-1.85
2023-02-04T18:31:51.181Z,-1.89
2023-02-04T18:35:41.794Z,-1.94
2023-02-04T18:39:18.694Z,-1.99
2023-02-04T18:42:47.654Z,-2.02
2023-02-04T18:46:25.136Z,-2.07
2023-02-04T18:49:52.348Z,-2.11
2023-02-04T18:53:23.630Z,-2.15
2023-02-04T18:56:51.198Z,-2.17
2023-02-04T19:00:27.962Z,-2.18
2023-02-04T19:03:57.580Z,-2.21
2023-02-04T19:07:24.705Z,-2.24
2023-02-04T19:10:53.489Z,-2.26
2023-02-04T19:14:26.115Z,-2.28
2023-02-04T19:17:53.475Z,-2.30
2023-02-04T19:21:32.087Z,-2.33
2023-02-04T19:25:09.045Z,-2.36
2023-02-04T19:28:38.998Z,-2.39
2023-02-04T19:32:24.114Z,-2.41
2023-02-04T19:36:24.714Z,-2.43
2023-02-04T19:39:52.662Z,-2.45
2023-02-04T19:43:24.037Z,-2.45
2023-02-04T19:46:51.251Z,-2.46
2023-02-04T19:50:27.651Z,-2.45
2023-02-04T19:53:59.107Z,-2.42
2023-02-04T19:57:29.312Z,-2.42
2023-02-04T20:01:01.405Z,-2.42
2023-02-04T20:04:32.886Z,-2.45
2023-02-04T20:08:08.559Z,-2.46
2023-02-04T20:11:45.082Z,-2.47
2023-02-04T20:15:20.586Z,-2.48
2023-02-04T20:18:47.739Z,-2.50
2023-02-04T20:22:45.798Z,-2.52
2023-02-04T20:26:14.835Z,-2.55
2023-02-04T20:29:41.948Z,-2.58
2023-02-04T20:33:24.683Z,-2.60
2023-02-04T20:36:52.595Z,-2.64
2023-02-04T20:40:23.306Z,-2.67
2023-02-04T20:43:51.352Z,-2.69
2023-02-04T20:47:21.455Z,-2.72
2023-02-04T20:50:52.086Z,-2.75
2023-02-04T20:54:20.292Z,-2.76
2023-02-04T20:57:48.226Z,-2.77
2023-02-04T21:01:29.033Z,-2.76
2023-02-04T21:05:02.082Z,-2.77
2023-02-04T21:08:33.982Z,-2.76
2023-02-04T21:12:02.893Z,-2.75
2023-02-04T21:15:30.355Z,-2.74
2023-02-04T21:18:57.815Z,-2.74
2023-02-04T21:22:25.120Z,-2.74
2023-02-04T21:25:52.638Z,-2.74
2023-02-04T21:29:20.022Z,-2.72
2023-02-04T21:32:47.270Z,-2.67
2023-02-04T21:36:14.835Z,-2.63
2023-02-04T21:39:42.013Z,-2.56
2023-02-04T21:43:09.655Z,-2.49
2023-02-04T21:46:37.156Z,-2.44
2023-02-04T21:50:04.580Z,-2.38
2023-02-04T21:53:32.081Z,-2.32
2023-02-04T21:57:04.462Z,-2.28
2023-02-04T22:00:35.168Z,-2.27
2023-02-04T22:04:02.595Z,-2.27
2023-02-04T22:07:39.876Z,-2.28
2023-02-04T22:11:07.327Z,-2.29
2023-02-04T22:14:52.155Z,-2.28
2023-02-04T22:18:20.720Z,-2.26
2023-02-04T22:21:48.016Z,-2.25
2023-02-04T22:25:17.207Z,-2.24
2023-02-04T22:28:44.428Z,-2.27
2023-02-04T22:32:14.679Z,-2.28
2023-02-04T22:35:42.153Z,-2.29
2023-02-04T22:39:09.679Z,-2.31
2023-02-04T22:42:37.065Z,-2.33
2023-02-04T22:46:04.343Z,-2.36
2023-02-04T22:49:33.566Z,-2.38
2023-02-04T22:53:00.815Z,-2.43
2023-02-04T22:56:28.710Z,-2.48
2023-02-04T22:59:55.926Z,-2.53
2023-02-04T23:03:23.337Z,-2.56
2023-02-04T23:06:51.077Z,-2.58
2023-02-04T23:10:18.262Z,-2.61
2023-02-04T23:13:45.453Z,-2.61
2023-02-04T23:17:13.519Z,-2.65
2023-02-04T23:20:42.279Z,-2.68
2023-02-04T23:24:10.847Z,-2.71
2023-02-04T23:27:38.076Z,-2.74
2023-02-04T23:31:05.753Z,-2.76
2023-02-04T23:34:33.050Z,-2.76
2023-02-04T23:38:02.953Z,-2.76
2023-02-04T23:41:30.278Z,-2.77
2023-02-04T23:44:57.555Z,-2.79
2023-02-04T23:48:27.591Z,-2.81
2023-02-04T23:51:57.953Z,-2.84
2023-02-04T23:55:25.294Z,-2.87
2023-02-04T23:58:53.430Z,-2.89
